Time;durP1;ratioP1;P1;durP2;ratioP2;P2;SDS_P1;SDS_P2;PMS_P1;PMS_P2;Temp;Humidity;BMP_temperature;BMP_pressure;BME280_temperature;BME280_humidity;BME280_pressure;Samples;Min_cycle;Max_cycle;Signal;HPM_P1;HPM_P2
2021/08/12 00:01:26;;;;;;;3.72;3.53;;;22.90;75.30;;;;;;4211063;28;20047;-63
2021/08/12 00:03:48;;;;;;;4.28;4.00;;;22.90;75.30;;;;;;4209448;28;20793;-63
2021/08/12 00:06:12;;;;;;;4.60;4.40;;;22.90;75.20;;;;;;4210997;28;20478;-63
2021/08/12 00:08:34;;;;;;;5.43;5.03;;;22.90;75.00;;;;;;4205440;28;20494;-63
2021/08/12 00:10:56;;;;;;;5.25;4.93;;;22.90;75.10;;;;;;4211016;28;20490;-63
2021/08/12 00:13:19;;;;;;;4.60;4.30;;;22.90;75.00;;;;;;4210848;28;20044;-63
2021/08/12 00:15:41;;;;;;;5.10;4.70;;;22.90;75.00;;;;;;4210790;28;20044;-63
2021/08/12 00:18:04;;;;;;;3.38;3.17;;;22.90;75.10;;;;;;4210935;28;20077;-63
2021/08/12 00:20:26;;;;;;;4.10;3.80;;;22.80;74.90;;;;;;4210876;28;20421;-63
2021/08/12 00:22:49;;;;;;;5.00;4.70;;;22.80;74.60;;;;;;4210239;28;20040;-63
2021/08/12 00:25:12;;;;;;;5.13;4.72;;;22.80;74.30;;;;;;4210947;28;20048;-62
2021/08/12 00:27:34;;;;;;;5.20;4.75;;;22.80;74.40;;;;;;4210682;28;20473;-63
2021/08/12 00:29:56;;;;;;;6.55;5.97;;;22.80;74.80;;;;;;4210512;28;20047;-62
2021/08/12 00:32:19;;;;;;;9.57;7.75;;;22.80;74.80;;;;;;4209430;28;23832;-63
2021/08/12 00:34:42;;;;;;;8.38;7.55;;;22.80;75.60;;;;;;4210681;28;20048;-62
2021/08/12 00:37:04;;;;;;;9.07;8.15;;;22.70;75.00;;;;;;4210582;28;20451;-62
2021/08/12 00:39:28;;;;;;;10.05;9.05;;;22.70;75.20;;;;;;4206658;28;20090;-62
2021/08/12 00:41:51;;;;;;;15.98;9.43;;;22.70;75.10;;;;;;4193917;28;20056;-62
2021/08/12 00:44:14;;;;;;;33.45;10.77;;;22.70;75.20;;;;;;4192320;28;20044;-62
2021/08/12 00:46:36;;;;;;;31.60;9.68;;;22.70;75.20;;;;;;4193457;28;20779;-62
2021/08/12 00:48:58;;;;;;;44.25;10.43;;;22.70;75.20;;;;;;4192194;28;20145;-62
2021/08/12 00:51:21;;;;;;;50.70;10.65;;;22.70;75.20;;;;;;4192052;28;20422;-62
2021/08/12 00:53:43;;;;;;;65.47;12.68;;;22.70;75.40;;;;;;4205273;28;20047;-63
2021/08/12 00:56:08;;;;;;;55.35;10.60;;;22.70;75.50;;;;;;4208662;28;20472;-63
2021/08/12 00:58:34;;;;;;;39.22;7.57;;;22.70;75.30;;;;;;4208371;28;20060;-61
2021/08/12 01:00:57;;;;;;;36.00;9.82;;;22.70;75.40;;;;;;4208635;28;20440;-62
2021/08/12 01:03:20;;;;;;;39.30;9.13;;;22.70;75.50;;;;;;4208840;28;20137;-63
2021/08/12 01:05:45;;;;;;;25.70;7.45;;;22.70;75.50;;;;;;4208584;28;20129;-62
2021/08/12 01:08:14;;;;;;;12.63;7.07;;;22.70;75.40;;;;;;4208079;28;20080;-62
2021/08/12 01:10:45;;;;;;;8.57;6.43;;;22.70;75.30;;;;;;4208502;28;20074;-63
2021/08/12 01:13:17;;;;;;;10.30;6.25;;;22.70;75.40;;;;;;4207841;28;20052;-62
2021/08/12 01:15:42;;;;;;;9.05;5.35;;;22.60;75.40;;;;;;4208131;28;20490;-63
2021/08/12 01:18:08;;;;;;;5.80;5.40;;;22.70;75.50;;;;;;4209974;28;20486;-63
2021/08/12 01:20:48;;;;;;;5.10;4.90;;;22.60;75.20;;;;;;4208649;28;20599;-62
2021/08/12 01:23:13;;;;;;;5.43;5.22;;;22.60;75.00;;;;;;4207832;28;20047;-63
2021/08/12 01:25:36;;;;;;;4.90;4.70;;;22.60;75.30;;;;;;4208368;28;20044;-62
2021/08/12 01:28:08;;;;;;;5.18;4.88;;;22.60;75.30;;;;;;4207997;28;20172;-63
2021/08/12 01:30:52;;;;;;;5.70;5.40;;;22.60;75.20;;;;;;4208009;28;20052;-63
2021/08/12 01:33:23;;;;;;;5.68;5.28;;;22.60;75.30;;;;;;4207973;28;20080;-62
2021/08/12 01:35:47;;;;;;;;;;;22.60;75.60;;;;;;4208386;28;20044;-63
2021/08/12 01:38:16;;;;;;;5.20;4.90;;;22.60;76.20;;;;;;4204594;28;19920;-62
2021/08/12 01:40:38;;;;;;;6.40;6.00;;;22.50;75.90;;;;;;4208274;28;20063;-62
2021/08/12 01:43:04;;;;;;;6.70;6.30;;;22.50;76.70;;;;;;4209689;28;20051;-63
2021/08/12 01:45:29;;;;;;;6.57;6.00;;;22.50;75.70;;;;;;4208241;28;20047;-62
2021/08/12 01:47:53;;;;;;;6.95;6.45;;;22.50;75.90;;;;;;4208069;28;20072;-62
2021/08/12 01:50:17;;;;;;;4.53;4.32;;;22.50;76.70;;;;;;4208043;28;20143;-63
2021/08/12 01:52:44;;;;;;;5.10;4.80;;;22.50;75.80;;;;;;4207579;28;20050;-63
2021/08/12 01:55:08;;;;;;;5.20;4.90;;;22.50;75.60;;;;;;4208002;28;20081;-63
2021/08/12 01:57:34;;;;;;;5.70;5.30;;;22.50;75.60;;;;;;4207589;28;20509;-62
2021/08/12 01:59:57;;;;;;;6.80;6.40;;;22.50;75.70;;;;;;4207675;28;20052;-62
2021/08/12 02:02:25;;;;;;;6.53;6.13;;;22.50;75.80;;;;;;4208069;28;20094;-62
2021/08/12 02:04:47;;;;;;;6.78;6.38;;;22.50;75.70;;;;;;4207275;28;20514;-62
2021/08/12 02:07:12;;;;;;;6.15;5.85;;;22.50;75.70;;;;;;4206696;28;20052;-62
2021/08/12 02:09:36;;;;;;;6.70;6.20;;;22.50;75.60;;;;;;4209026;28;20052;-62
2021/08/12 02:11:58;;;;;;;6.88;6.38;;;22.50;75.50;;;;;;4207290;28;20127;-63
2021/08/12 02:14:21;;;;;;;6.18;5.78;;;22.50;75.50;;;;;;4207445;28;20142;-63
2021/08/12 02:16:43;;;;;;;6.57;6.18;;;22.50;75.50;;;;;;4207109;28;20098;-63
2021/08/12 02:19:06;;;;;;;7.25;6.75;;;22.50;75.50;;;;;;4207537;28;20044;-62
2021/08/12 02:21:33;;;;;;;5.55;5.25;;;22.50;75.50;;;;;;4207448;28;20048;-63
2021/08/12 02:24:02;;;;;;;6.20;5.88;;;22.50;75.10;;;;;;4190521;28;20048;-62
2021/08/12 02:26:28;;;;;;;5.22;5.03;;;22.50;75.00;;;;;;4192440;28;20045;-63
2021/08/12 02:28:52;;;;;;;4.30;4.10;;;22.40;74.70;;;;;;4190878;28;20052;-63
2021/08/12 02:31:16;;;;;;;4.38;4.18;;;22.40;74.80;;;;;;4191902;28;20422;-62
2021/08/12 02:33:40;;;;;;;4.60;4.22;;;22.40;74.70;;;;;;4190544;28;20080;-62
2021/08/12 02:36:02;;;;;;;4.18;3.97;;;22.40;74.60;;;;;;4191734;28;20494;-62
2021/08/12 02:38:25;;;;;;;4.40;4.20;;;22.40;74.70;;;;;;4208266;28;20044;-62
2021/08/12 02:40:50;;;;;;;4.95;4.55;;;22.40;74.60;;;;;;4206921;28;20044;-62
2021/08/12 02:43:14;;;;;;;4.80;4.50;;;22.40;74.60;;;;;;4206747;28;20651;-62
2021/08/12 02:45:38;;;;;;;4.72;4.53;;;22.40;74.60;;;;;;4207127;28;20054;-63
2021/08/12 02:48:01;;;;;;;4.97;4.68;;;22.40;74.70;;;;;;4207188;28;20526;-62
2021/08/12 02:50:25;;;;;;;4.90;4.50;;;22.40;74.90;;;;;;4207340;28;20120;-62
2021/08/12 02:52:48;;;;;;;4.78;4.47;;;22.40;74.90;;;;;;4206485;28;20135;-62
2021/08/12 02:55:13;;;;;;;4.95;4.75;;;22.40;75.90;;;;;;4206955;28;20060;-62
2021/08/12 02:57:36;;;;;;;5.75;5.25;;;22.30;75.00;;;;;;4207004;28;20060;-62
2021/08/12 03:00:00;;;;;;;5.35;5.05;;;22.30;75.00;;;;;;4206627;28;20048;-62
2021/08/12 03:02:23;;;;;;;5.57;5.18;;;22.30;74.90;;;;;;4208478;28;20481;-62
2021/08/12 03:04:46;;;;;;;5.28;4.97;;;22.30;75.00;;;;;;4206862;28;20083;-62
2021/08/12 03:07:09;;;;;;;5.13;4.82;;;22.30;75.00;;;;;;4206152;28;20137;-62
2021/08/12 03:09:32;;;;;;;5.22;4.90;;;22.30;75.00;;;;;;4206973;28;20723;-62
2021/08/12 03:11:56;;;;;;;6.15;5.70;;;22.30;74.90;;;;;;4206828;28;20047;-62
2021/08/12 03:14:18;;;;;;;6.05;5.65;;;22.30;75.00;;;;;;4206758;28;20059;-61
2021/08/12 03:16:41;;;;;;;5.38;5.07;;;22.30;75.00;;;;;;4208274;28;20497;-63
2021/08/12 03:19:04;;;;;;;5.05;4.78;;;22.30;75.00;;;;;;4206659;28;20494;-63
2021/08/12 03:21:25;;;;;;;5.25;4.75;;;22.30;74.90;;;;;;4206387;28;20067;-62
2021/08/12 03:23:48;;;;;;;5.30;4.97;;;22.30;74.80;;;;;;4201392;28;20118;-62
2021/08/12 03:26:11;;;;;;;5.00;4.70;;;22.30;75.00;;;;;;4204253;28;20130;-62
2021/08/12 03:28:34;;;;;;;4.85;4.57;;;22.30;75.00;;;;;;4206176;28;20056;-62
2021/08/12 03:30:58;;;;;;;3.70;3.50;;;22.30;75.00;;;;;;4206666;28;20109;-62
2021/08/12 03:33:21;;;;;;;5.22;4.90;;;22.30;75.00;;;;;;4208137;28;20085;-62
2021/08/12 03:35:43;;;;;;;4.65;4.45;;;22.30;75.00;;;;;;4206076;28;20072;-63
2021/08/12 03:38:05;;;;;;;4.97;4.68;;;22.30;75.00;;;;;;4206204;28;20790;-62
2021/08/12 03:40:27;;;;;;;4.43;4.18;;;22.30;75.00;;;;;;4206364;28;20176;-62
2021/08/12 03:42:49;;;;;;;4.00;3.83;;;22.20;74.90;;;;;;4206553;28;20051;-62
2021/08/12 03:45:12;;;;;;;3.60;3.42;;;22.20;74.70;;;;;;4206391;28;20630;-62
2021/08/12 03:47:34;;;;;;;3.53;3.28;;;22.20;74.50;;;;;;4207862;28;20068;-62
2021/08/12 03:49:58;;;;;;;3.10;3.00;;;22.20;74.50;;;;;;4207712;28;20048;-61
2021/08/12 03:52:21;;;;;;;4.28;3.97;;;22.20;74.60;;;;;;4206454;28;20101;-61
2021/08/12 03:54:43;;;;;;;3.42;3.22;;;22.20;74.70;;;;;;4207776;28;20059;-61
2021/08/12 03:57:06;;;;;;;2.70;2.60;;;22.20;74.60;;;;;;4206350;28;20055;-62
2021/08/12 03:59:29;;;;;;;4.05;3.85;;;22.20;74.60;;;;;;4205917;28;20517;-62
2021/08/12 04:01:52;;;;;;;3.58;3.38;;;22.20;74.60;;;;;;4207641;28;20063;-62
2021/08/12 04:04:14;;;;;;;3.35;3.22;;;22.10;74.80;;;;;;4206104;28;20056;-62
2021/08/12 04:06:37;;;;;;;3.13;3.03;;;22.20;74.60;;;;;;4207462;28;20444;-62
2021/08/12 04:08:59;;;;;;;3.10;3.00;;;22.10;74.20;;;;;;4207461;28;20047;-62
2021/08/12 04:11:21;;;;;;;4.05;3.33;;;22.10;74.20;;;;;;4206141;28;20110;-60
2021/08/12 04:13:44;;;;;;;3.50;3.30;;;22.10;74.10;;;;;;4206185;28;20048;-62
2021/08/12 04:16:07;;;;;;;3.47;3.38;;;22.10;74.00;;;;;;4206161;28;20070;-62
2021/08/12 04:18:29;;;;;;;3.97;3.67;;;22.10;74.00;;;;;;4206119;28;20130;-62
2021/08/12 04:20:51;;;;;;;3.88;3.45;;;22.10;73.90;;;;;;4206343;28;20056;-62
2021/08/12 04:23:15;;;;;;;3.90;3.67;;;22.10;74.00;;;;;;4203761;28;20059;-62
2021/08/12 04:25:37;;;;;;;4.15;3.90;;;22.10;74.10;;;;;;4207599;28;20058;-63
2021/08/12 04:27:59;;;;;;;3.80;3.50;;;22.10;74.00;;;;;;4207486;28;20071;-62
2021/08/12 04:30:23;;;;;;;4.05;3.75;;;22.00;74.10;;;;;;4206124;28;20559;-62
2021/08/12 04:32:45;;;;;;;4.50;4.10;;;22.10;74.60;;;;;;4205928;28;20036;-62
2021/08/12 04:35:09;;;;;;;4.45;4.15;;;22.10;74.80;;;;;;4206082;28;20110;-62
2021/08/12 04:37:37;;;;;;;3.58;3.38;;;22.00;74.60;;;;;;4205277;28;20078;-62
2021/08/12 04:40:02;;;;;;;4.00;3.80;;;22.10;74.60;;;;;;4207765;28;20565;-63
2021/08/12 04:42:24;;;;;;;4.25;3.95;;;22.00;74.80;;;;;;4208880;28;20054;-63
2021/08/12 04:44:46;;;;;;;4.85;4.38;;;22.00;74.80;;;;;;4209119;28;20444;-63
2021/08/12 04:47:09;;;;;;;4.32;4.13;;;22.00;75.00;;;;;;4209286;28;20452;-63
2021/08/12 04:49:31;;;;;;;4.78;4.10;;;22.00;74.80;;;;;;4208810;28;20051;-63
2021/08/12 04:51:53;;;;;;;5.05;4.57;;;22.00;74.90;;;;;;4208641;28;20437;-63
2021/08/12 04:54:16;;;;;;;4.72;4.43;;;22.00;75.20;;;;;;4210214;28;20056;-63
2021/08/12 04:56:40;;;;;;;5.25;4.88;;;22.00;75.20;;;;;;4208687;28;20047;-63
2021/08/12 04:59:02;;;;;;;5.32;4.95;;;22.00;76.20;;;;;;4210235;28;20040;-63
2021/08/12 05:01:24;;;;;;;4.97;4.68;;;22.00;75.70;;;;;;4208689;28;20058;-62
2021/08/12 05:03:46;;;;;;;5.10;4.70;;;22.00;75.70;;;;;;4208725;28;20076;-63
2021/08/12 05:06:11;;;;;;;5.05;4.65;;;22.00;75.70;;;;;;4208653;28;20074;-63
2021/08/12 05:08:34;;;;;;;5.20;4.78;;;22.00;75.70;;;;;;4205913;28;20043;-62
2021/08/12 05:10:56;;;;;;;5.95;5.40;;;22.00;75.80;;;;;;4193445;28;20048;-63
2021/08/12 05:13:20;;;;;;;5.85;4.53;;;22.00;75.70;;;;;;4193321;28;20044;-63
2021/08/12 05:15:42;;;;;;;6.00;5.50;;;22.00;75.80;;;;;;4193123;28;20131;-63
2021/08/12 05:18:05;;;;;;;5.32;4.93;;;22.00;75.80;;;;;;4196570;28;20050;-63
2021/08/12 05:20:27;;;;;;;6.53;5.97;;;22.00;76.80;;;;;;4208379;28;20052;-63
2021/08/12 05:22:49;;;;;;;5.90;5.43;;;22.00;76.30;;;;;;4208064;28;20068;-63
2021/08/12 05:25:12;;;;;;;5.88;5.47;;;22.00;76.40;;;;;;4209954;28;20052;-64
2021/08/12 05:27:35;;;;;;;6.05;5.55;;;22.00;76.40;;;;;;4208208;28;20055;-63
2021/08/12 05:29:59;;;;;;;6.22;5.72;;;22.00;76.70;;;;;;4207795;28;20113;-63
2021/08/12 05:32:22;;;;;;;5.68;5.28;;;22.10;76.60;;;;;;4208223;28;20498;-63
2021/08/12 05:34:44;;;;;;;7.05;5.70;;;22.10;76.60;;;;;;4207597;28;20051;-64
2021/08/12 05:37:06;;;;;;;6.45;5.95;;;22.00;76.30;;;;;;4209569;28;20498;-63
2021/08/12 05:39:28;;;;;;;6.20;5.60;;;22.00;76.90;;;;;;4209950;28;20047;-63
2021/08/12 05:41:51;;;;;;;6.43;5.88;;;22.00;75.90;;;;;;4207882;28;20716;-64
2021/08/12 05:44:13;;;;;;;8.38;6.22;;;22.00;75.80;;;;;;4209573;28;20052;-63
2021/08/12 05:46:37;;;;;;;6.65;6.15;;;22.00;75.80;;;;;;4208008;28;20044;-63
2021/08/12 05:49:01;;;;;;;6.20;5.80;;;22.00;75.70;;;;;;4201125;28;20103;-64
2021/08/12 05:51:23;;;;;;;6.18;5.68;;;22.00;75.80;;;;;;4201941;28;20059;-63
2021/08/12 05:53:45;;;;;;;6.68;6.18;;;22.00;75.90;;;;;;4209086;28;20055;-63
2021/08/12 05:56:07;;;;;;;6.10;5.65;;;22.00;76.00;;;;;;4209070;28;20048;-63
2021/08/12 05:58:32;;;;;;;6.60;6.03;;;22.00;76.10;;;;;;4208903;28;20052;-63
2021/08/12 06:00:54;;;;;;;7.00;6.32;;;22.00;76.10;;;;;;4207316;28;20051;-63
2021/08/12 06:03:18;;;;;;;6.63;6.13;;;22.00;76.20;;;;;;4203128;28;20052;-63
2021/08/12 06:05:41;;;;;;;6.28;5.88;;;22.00;76.20;;;;;;4207238;28;20069;-63
2021/08/12 06:08:04;;;;;;;6.15;5.75;;;22.00;76.50;;;;;;4204857;28;20767;-64
2021/08/12 06:10:29;;;;;;;6.90;6.40;;;22.00;76.50;;;;;;4207288;28;20040;-64
2021/08/12 06:12:51;;;;;;;7.57;6.93;;;22.00;76.60;;;;;;4207534;28;20051;-63
2021/08/12 06:15:13;;;;;;;7.35;6.85;;;22.10;76.60;;;;;;4207666;28;20044;-63
2021/08/12 06:17:37;;;;;;;7.82;7.13;;;22.10;76.60;;;;;;4206856;28;20478;-62
2021/08/12 06:20:01;;;;;;;7.25;6.65;;;22.10;76.60;;;;;;4207496;28;20044;-62
2021/08/12 06:22:23;;;;;;;8.07;7.38;;;22.00;77.40;;;;;;4207422;28;20048;-62
2021/08/12 06:24:45;;;;;;;7.90;7.35;;;22.10;76.60;;;;;;4206861;28;20044;-63
2021/08/12 06:27:07;;;;;;;8.00;7.22;;;22.10;76.60;;;;;;4206875;28;20130;-63
2021/08/12 06:29:29;;;;;;;7.55;6.95;;;22.10;76.50;;;;;;4190299;28;20044;-64
2021/08/12 06:31:54;;;;;;;8.68;7.88;;;22.10;76.50;;;;;;4190421;28;20901;-63
2021/08/12 06:34:17;;;;;;;8.25;7.53;;;22.00;76.40;;;;;;4197503;28;20059;-63
2021/08/12 06:36:40;;;;;;;8.48;7.68;;;22.10;76.50;;;;;;4203961;28;20110;-64
2021/08/12 06:39:02;;;;;;;8.15;7.43;;;22.10;76.70;;;;;;4207025;28;20482;-64
2021/08/12 06:41:25;;;;;;;8.40;7.75;;;22.00;76.80;;;;;;4190430;28;20498;-64
2021/08/12 06:43:51;;;;;;;9.25;8.40;;;22.00;77.00;;;;;;4205403;28;20048;-65
2021/08/12 06:46:13;;;;;;;9.30;8.50;;;22.00;77.10;;;;;;4208668;28;20138;-65
2021/08/12 06:48:37;;;;;;;8.95;8.05;;;22.00;77.20;;;;;;4207139;28;20097;-64
2021/08/12 06:51:14;;;;;;;9.18;8.43;;;22.00;79.70;;;;;;4191737;28;20060;-65
2021/08/12 06:53:38;;;;;;;9.75;8.85;;;22.10;82.80;;;;;;4190096;28;20637;-64
2021/08/12 06:56:03;;;;;;;9.90;8.90;;;22.10;83.40;;;;;;4208140;28;20050;-63
2021/08/12 06:58:25;;;;;;;9.55;8.85;;;22.10;84.60;;;;;;4206663;28;20048;-64
2021/08/12 07:00:47;;;;;;;9.27;8.45;;;22.10;82.50;;;;;;4206992;28;20044;-63
2021/08/12 07:03:10;;;;;;;9.73;8.65;;;22.10;81.30;;;;;;4207618;28;20048;-63
2021/08/12 07:05:32;;;;;;;9.02;8.30;;;22.10;80.60;;;;;;4206931;28;20516;-64
2021/08/12 07:07:55;;;;;;;9.45;8.60;;;22.10;80.20;;;;;;4206824;28;20528;-63
2021/08/12 07:10:19;;;;;;;9.38;8.48;;;22.20;80.00;;;;;;4208004;28;20113;-63
2021/08/12 07:12:42;;;;;;;9.02;8.25;;;22.20;79.70;;;;;;4206632;28;20134;-64
2021/08/12 07:15:05;;;;;;;8.93;8.15;;;22.20;79.40;;;;;;4207790;28;20448;-64
2021/08/12 07:17:28;;;;;;;8.75;7.95;;;22.20;79.40;;;;;;4206208;28;20075;-64
2021/08/12 07:19:51;;;;;;;10.25;9.25;;;22.20;79.40;;;;;;4206655;28;20610;-64
2021/08/12 07:22:14;;;;;;;9.23;8.52;;;22.30;79.50;;;;;;4206570;28;20083;-65
2021/08/12 07:24:36;;;;;;;9.45;8.73;;;22.30;79.20;;;;;;4206167;28;20078;-64
2021/08/12 07:26:59;;;;;;;9.38;8.55;;;22.30;78.90;;;;;;4207891;28;20505;-63
2021/08/12 07:29:21;;;;;;;9.00;8.13;;;22.40;78.70;;;;;;4206327;28;20048;-64
2021/08/12 07:31:45;;;;;;;8.93;8.00;;;22.40;78.50;;;;;;4207981;28;20063;-63
2021/08/12 07:34:08;;;;;;;8.55;7.85;;;22.40;78.30;;;;;;4206217;28;20090;-63
2021/08/12 07:36:30;;;;;;;8.82;7.97;;;22.50;78.10;;;;;;4206444;28;20117;-63
2021/08/12 07:38:52;;;;;;;9.07;8.27;;;22.50;78.10;;;;;;4189884;28;20585;-63
2021/08/12 07:41:26;;;;;;;8.98;8.07;;;22.60;78.10;;;;;;4204805;28;20040;-63
2021/08/12 07:43:49;;;;;;;8.07;7.38;;;22.60;77.80;;;;;;4205850;28;20059;-63
2021/08/12 07:46:11;;;;;;;8.80;8.00;;;22.60;77.70;;;;;;4205778;28;20063;-62
2021/08/12 07:48:36;;;;;;;8.13;7.43;;;22.70;77.70;;;;;;4206251;28;20044;-63
2021/08/12 07:50:58;;;;;;;7.80;7.10;;;22.70;77.50;;;;;;4207778;28;20407;-63
2021/08/12 07:53:20;;;;;;;7.43;6.93;;;22.70;77.30;;;;;;4207687;28;20056;-63
2021/08/12 07:55:43;;;;;;;8.68;7.97;;;22.70;77.10;;;;;;4207708;28;20048;-63
2021/08/12 07:58:05;;;;;;;8.68;7.90;;;22.80;76.80;;;;;;4207350;28;20477;-63
2021/08/12 08:00:29;;;;;;;8.48;7.57;;;22.80;76.70;;;;;;4207241;28;20382;-62
2021/08/12 08:02:51;;;;;;;7.28;6.70;;;22.80;76.40;;;;;;4207680;28;20044;-63
2021/08/12 08:05:17;;;;;;;7.65;7.13;;;22.90;76.20;;;;;;4207538;28;20048;-63
2021/08/12 08:07:39;;;;;;;10.13;6.97;;;22.90;76.30;;;;;;4207403;28;20059;-62
2021/08/12 08:10:01;;;;;;;7.00;6.50;;;22.90;75.90;;;;;;4207662;28;20559;-63
2021/08/12 08:12:23;;;;;;;8.02;7.30;;;23.00;75.80;;;;;;4207121;28;20117;-63
2021/08/12 08:14:45;;;;;;;8.20;7.50;;;23.00;75.80;;;;;;4207134;28;20056;-63
2021/08/12 08:17:09;;;;;;;7.47;6.88;;;23.00;75.60;;;;;;4210572;28;20062;-63
2021/08/12 08:19:31;;;;;;;8.27;7.10;;;23.00;75.60;;;;;;4197952;28;20109;-62
2021/08/12 08:21:53;;;;;;;6.93;6.40;;;23.00;75.50;;;;;;4211079;28;20048;-63
2021/08/12 08:24:15;;;;;;;8.10;7.40;;;23.00;75.30;;;;;;4210264;28;20048;-62
2021/08/12 08:26:37;;;;;;;7.93;7.13;;;23.10;75.20;;;;;;4210527;28;20043;-62
2021/08/12 08:29:01;;;;;;;7.82;7.10;;;23.10;75.10;;;;;;4210909;28;20048;-62
2021/08/12 08:31:23;;;;;;;7.90;7.20;;;23.10;75.90;;;;;;4210707;28;20129;-62
2021/08/12 08:33:47;;;;;;;8.00;6.80;;;23.20;75.00;;;;;;4210969;28;20048;-62
2021/08/12 08:36:09;;;;;;;9.43;7.93;;;23.20;74.80;;;;;;4193889;28;20118;-63
2021/08/12 08:38:31;;;;;;;8.93;8.23;;;23.20;75.00;;;;;;4193836;28;20052;-63
2021/08/12 08:40:54;;;;;;;8.25;7.20;;;23.20;75.00;;;;;;4209618;28;20048;-62
2021/08/12 08:43:19;;;;;;;8.40;7.65;;;23.30;75.10;;;;;;4206551;28;20055;-63
2021/08/12 08:45:45;;;;;;;8.05;7.35;;;23.30;75.00;;;;;;4210705;28;20043;-62
2021/08/12 08:48:10;;;;;;;8.18;7.38;;;23.30;74.70;;;;;;4210257;28;20551;-62
2021/08/12 08:50:36;;;;;;;9.60;7.47;;;23.40;74.70;;;;;;4210659;28;20044;-62
2021/08/12 08:52:59;;;;;;;7.85;6.88;;;23.40;74.60;;;;;;4209694;28;20055;-62
2021/08/12 08:55:23;;;;;;;9.82;7.30;;;23.40;74.50;;;;;;4209192;28;20577;-64
2021/08/12 08:57:45;;;;;;;7.57;6.88;;;23.40;74.20;;;;;;4209805;28;20043;-64
2021/08/12 09:00:10;;;;;;;8.77;7.88;;;23.50;74.20;;;;;;4209847;28;20048;-64
2021/08/12 09:02:32;;;;;;;8.65;7.10;;;23.50;73.40;;;;;;4209950;28;20515;-64
2021/08/12 09:04:54;;;;;;;8.75;7.68;;;23.50;74.00;;;;;;4210044;28;20133;-64
2021/08/12 09:07:18;;;;;;;9.18;8.25;;;23.50;73.00;;;;;;4209808;28;20513;-63
2021/08/12 09:09:40;;;;;;;8.75;7.90;;;23.60;72.90;;;;;;4210239;28;20055;-63
2021/08/12 09:12:05;;;;;;;9.45;8.35;;;23.60;73.10;;;;;;4202687;28;20045;-63
2021/08/12 09:14:32;;;;;;;8.80;7.88;;;23.60;73.00;;;;;;4208854;28;20055;-64
2021/08/12 09:16:55;;;;;;;8.48;7.68;;;23.70;72.70;;;;;;4210142;28;20490;-63
2021/08/12 09:19:21;;;;;;;8.27;7.55;;;23.70;72.70;;;;;;4209955;28;20044;-63
2021/08/12 09:21:44;;;;;;;8.05;7.35;;;23.70;72.50;;;;;;4209299;28;20052;-64
2021/08/12 09:24:08;;;;;;;7.63;6.95;;;23.70;72.60;;;;;;4209538;28;20418;-64
2021/08/12 09:26:37;;;;;;;9.85;6.63;;;23.80;72.50;;;;;;4209186;28;20048;-64
2021/08/12 09:28:59;;;;;;;7.13;6.38;;;23.80;72.50;;;;;;4201621;28;20039;-63
2021/08/12 09:31:24;;;;;;;7.45;6.13;;;23.80;72.30;;;;;;4209311;28;20063;-63
2021/08/12 09:33:53;;;;;;;7.75;5.93;;;23.90;71.80;;;;;;4209253;28;20052;-63
2021/08/12 09:36:27;;;;;;;5.47;5.03;;;23.90;71.20;;;;;;4208995;28;20052;-63
2021/08/12 09:39:25;;;;;;;6.50;5.53;;;23.90;71.20;;;;;;4209188;28;20144;-63
2021/08/12 09:41:51;;;;;;;6.38;5.78;;;23.90;71.00;;;;;;4198155;28;20105;-63
2021/08/12 09:44:37;;;;;;;6.50;5.75;;;24.00;70.80;;;;;;4209537;28;20052;-63
2021/08/12 09:47:01;;;;;;;5.28;4.82;;;24.00;70.30;;;;;;4209443;28;20054;-63
2021/08/12 09:49:23;;;;;;;5.38;4.57;;;24.00;70.20;;;;;;4209071;28;20051;-63
2021/08/12 09:51:45;;;;;;;6.82;5.07;;;24.00;69.80;;;;;;4208823;28;20043;-63
2021/08/12 09:54:07;;;;;;;4.90;4.50;;;24.10;69.60;;;;;;4208181;28;20079;-64
2021/08/12 09:56:29;;;;;;;5.97;4.53;;;24.10;69.50;;;;;;4209258;28;20068;-63
2021/08/12 09:58:52;;;;;;;5.70;4.65;;;24.10;69.50;;;;;;4208619;28;20048;-63
2021/08/12 10:01:20;;;;;;;3.90;3.60;;;24.10;69.50;;;;;;4209363;28;20048;-63
2021/08/12 10:03:44;;;;;;;4.53;3.35;;;24.20;68.70;;;;;;4207745;28;20069;-63
2021/08/12 10:06:18;;;;;;;3.10;2.90;;;24.20;68.40;;;;;;4209150;28;20052;-63
2021/08/12 10:08:41;;;;;;;3.47;3.17;;;24.20;67.70;;;;;;4208895;28;20499;-63
2021/08/12 10:11:25;;;;;;;2.83;2.60;;;24.20;67.60;;;;;;4203958;28;20045;-63
2021/08/12 10:13:48;;;;;;;3.60;3.30;;;24.20;67.40;;;;;;4208610;28;20405;-63
2021/08/12 10:16:15;;;;;;;3.97;3.17;;;24.30;67.50;;;;;;4208425;28;20044;-63
2021/08/12 10:18:38;;;;;;;3.35;3.13;;;24.30;67.70;;;;;;4208999;28;20083;-63
2021/08/12 10:21:01;;;;;;;5.40;3.60;;;24.30;67.40;;;;;;4208621;28;20048;-64
2021/08/12 10:23:24;;;;;;;5.18;3.55;;;24.30;67.30;;;;;;4208718;28;20051;-63
2021/08/12 10:25:57;;;;;;;3.13;2.92;;;24.30;67.30;;;;;;4192476;28;20540;-63
2021/08/12 10:28:21;;;;;;;3.47;3.28;;;24.30;66.80;;;;;;4204892;28;20406;-64
2021/08/12 10:30:43;;;;;;;3.72;3.40;;;24.30;66.90;;;;;;4208860;28;20051;-63
2021/08/12 10:33:08;;;;;;;4.28;3.17;;;24.40;66.80;;;;;;4208472;28;20048;-65
2021/08/12 10:35:32;;;;;;;3.50;3.25;;;24.40;66.20;;;;;;4208122;28;20048;-64
2021/08/12 10:37:55;;;;;;;3.90;3.60;;;24.40;66.40;;;;;;4208377;28;20052;-64
2021/08/12 10:40:17;;;;;;;5.57;4.18;;;24.50;66.40;;;;;;4208286;28;20127;-65
2021/08/12 10:42:39;;;;;;;4.22;3.33;;;24.50;65.90;;;;;;4197949;28;20044;-66
2021/08/12 10:45:02;;;;;;;3.90;3.60;;;24.50;65.90;;;;;;4191824;28;20056;-65
2021/08/12 10:47:38;;;;;;;3.88;3.55;;;24.50;65.70;;;;;;4207971;28;20067;-65
2021/08/12 10:50:37;;;;;;;3.42;3.22;;;24.50;65.90;;;;;;4207931;28;20070;-64
2021/08/12 10:53:19;;;;;;;4.32;3.90;;;24.50;65.40;;;;;;4207822;28;20052;-63
2021/08/12 10:56:06;;;;;;;3.63;3.33;;;24.50;65.40;;;;;;4191424;28;20044;-63
2021/08/12 10:58:50;;;;;;;4.78;3.65;;;24.50;65.40;;;;;;4191573;28;20465;-64
2021/08/12 11:01:14;;;;;;;4.05;3.67;;;24.50;65.80;;;;;;4169114;28;20052;-63
2021/08/12 11:03:47;;;;;;;17.23;4.57;;;24.50;66.00;;;;;;4195117;28;20076;-63
2021/08/12 11:06:15;;;;;;;3.67;3.38;;;24.50;65.70;;;;;;4206469;28;20051;-63
2021/08/12 11:09:02;;;;;;;4.80;3.65;;;24.50;65.80;;;;;;4208305;28;20082;-63
2021/08/12 11:11:52;;;;;;;4.00;3.78;;;24.50;66.30;;;;;;4207442;28;20105;-65
2021/08/12 11:14:14;;;;;;;3.40;3.15;;;24.60;65.30;;;;;;4207768;28;20055;-67
2021/08/12 11:16:54;;;;;;;3.30;3.10;;;24.60;65.40;;;;;;4208145;28;20561;-63
2021/08/12 11:19:35;;;;;;;4.22;2.90;;;24.60;65.30;;;;;;4208107;28;20494;-63
2021/08/12 11:21:59;;;;;;;2.95;2.67;;;24.60;65.40;;;;;;4199988;28;20131;-63
2021/08/12 11:24:49;;;;;;;3.03;2.63;;;24.60;65.30;;;;;;4207883;28;20551;-63
2021/08/12 11:27:11;;;;;;;6.20;3.33;;;24.60;64.30;;;;;;4207563;28;20456;-63
2021/08/12 11:29:35;;;;;;;4.20;3.83;;;24.70;65.90;;;;;;4191270;28;20064;-63
2021/08/12 11:32:02;;;;;;;3.28;3.00;;;24.70;64.80;;;;;;4193887;28;20058;-63
2021/08/12 11:34:28;;;;;;;4.38;3.97;;;24.60;65.20;;;;;;4207169;28;20131;-63
2021/08/12 11:37:09;;;;;;;3.67;3.40;;;24.70;64.80;;;;;;4208243;28;20059;-63
2021/08/12 11:39:31;;;;;;;3.60;3.30;;;24.70;64.80;;;;;;4207731;28;20058;-63
2021/08/12 11:41:55;;;;;;;3.03;2.83;;;24.60;64.70;;;;;;4191309;28;20076;-63
2021/08/12 11:44:17;;;;;;;3.53;3.13;;;24.70;64.60;;;;;;4191426;28;20098;-63
2021/08/12 11:46:40;;;;;;;4.57;3.80;;;24.70;65.30;;;;;;4191311;28;20057;-63
2021/08/12 11:49:03;;;;;;;3.97;3.75;;;24.70;65.20;;;;;;4191174;28;20068;-63
2021/08/12 11:51:32;;;;;;;5.07;3.50;;;24.70;65.20;;;;;;4209125;28;20174;-63
2021/08/12 11:53:55;;;;;;;3.75;3.53;;;24.70;64.60;;;;;;4211110;28;20416;-63
2021/08/12 11:56:20;;;;;;;5.30;4.40;;;24.80;64.70;;;;;;4211199;28;20056;-63
2021/08/12 11:58:44;;;;;;;4.13;3.72;;;24.80;64.60;;;;;;4211389;28;20048;-62
2021/08/12 12:01:14;;;;;;;4.53;4.10;;;24.80;65.00;;;;;;4211020;28;20055;-63
2021/08/12 12:03:37;;;;;;;4.60;4.20;;;24.80;64.80;;;;;;4211364;28;22153;-63
2021/08/12 12:05:59;;;;;;;3.47;3.28;;;24.80;64.80;;;;;;4211188;28;20863;-63
2021/08/12 12:08:28;;;;;;;3.92;3.72;;;24.80;65.20;;;;;;4211132;28;20064;-63
2021/08/12 12:10:52;;;;;;;3.85;3.55;;;24.80;64.90;;;;;;4210867;28;20097;-63
2021/08/12 12:13:15;;;;;;;4.10;3.80;;;24.80;65.70;;;;;;4210960;28;20456;-63
2021/08/12 12:15:39;;;;;;;4.07;3.67;;;24.80;64.70;;;;;;4211180;28;20048;-63
2021/08/12 12:18:01;;;;;;;4.40;4.00;;;24.80;64.80;;;;;;4211045;28;20044;-63
2021/08/12 12:20:24;;;;;;;4.72;4.35;;;24.90;65.00;;;;;;4209594;28;20058;-63
2021/08/12 12:22:57;;;;;;;4.18;3.78;;;24.90;65.10;;;;;;4210855;28;20055;-63
2021/08/12 12:25:20;;;;;;;4.35;3.92;;;24.90;65.00;;;;;;4210769;28;20737;-63
2021/08/12 12:27:47;;;;;;;5.75;4.38;;;24.90;65.20;;;;;;4211085;28;20067;-63
2021/08/12 12:30:12;;;;;;;4.00;3.70;;;24.90;65.10;;;;;;4210793;28;20046;-63
2021/08/12 12:32:35;;;;;;;4.10;3.70;;;24.90;65.50;;;;;;4211125;28;20479;-63